• Join FlightAware (Why Join?)
  • Login
  • US Flag 
01:02PM EDT


 

Airport Tracker/Info


-or-


 

Live Flight TrackerFlight Track Log ✈ N6184V ✈ 08-Nov-2013 ✈ KISM - KISM

Flight Track Log - Related Links

Times and Time Zones

All times are in EST time to prevent confusion due to time zone crossing. See the N6184V flight status page for this flight to view local times or setup timezone preferences in your user account.

Time Position Orientation Groundspeed Altitude Reporting Facility
EST Latitude Longitude Course Direction KTS MPH feet Rate Location/Type
08:36AM 28.3000 -81.4333 280° West 78 90 400  Level Orlando TRACON
08:37AM 28.3000 -81.4500 270° West 69 79 700 660 Climbing Orlando TRACON
08:38AM 28.2833 -81.4833 240° Southwest 99 114 1,400 600 Climbing Orlando TRACON
08:39AM 28.2833 -81.5000 270° West 99 114 2,000 240 Climbing Orlando TRACON
08:40AM 28.2833 -81.5500 270° West 120 138 2,000 360 Level Orlando TRACON
08:41AM 28.2667 -81.5667 221° Southwest 109 125 2,700 540 Climbing Orlando TRACON
08:42AM 28.2898 -81.4371 280° West  Level Estimated
08:42AM 28.2667 -81.6000 270° West 83 96 3,100  Level Orlando TRACON
08:43AM 28.3000 -81.6167 336° Northwest 101 116 3,100 -60 Level Orlando TRACON
08:44AM 28.3167 -81.6000 41° Northeast 91 105 3,000 -60 Descending Orlando TRACON
08:45AM 28.2833 -81.6000 180° South 120 138 3,000  Level Orlando TRACON
08:46AM 28.2667 -81.6167 221° Southwest 115 132 3,000  Level Orlando TRACON
08:47AM 28.2833 -81.6333 319° Northwest 94 108 3,000  Level Orlando TRACON
08:48AM 28.3000 -81.6167 41° Northeast 85 98 3,100  Climbing Orlando TRACON
08:48AM 28.3167 -81.6000 41° Northeast 88 101 3,000 -60 Descending Orlando TRACON
08:49AM 28.3000 -81.6000 180° South 117 135 3,000  Level Orlando TRACON
08:50AM 28.2833 -81.6167 221° Southwest 100 115 3,000  Level Orlando TRACON
08:51AM 28.3000 -81.6167 360° North 89 102 3,000  Level Orlando TRACON
08:52AM 28.3000 -81.5833 90° East 104 120 3,100  Climbing Orlando TRACON
08:53AM 28.2833 -81.6000 221° Southwest 114 131 3,000 -60 Descending Orlando TRACON
08:54AM 28.2833 -81.6333 270° West 99 114 3,000  Level Orlando TRACON
08:55AM 28.3000 -81.6167 41° Northeast 85 98 3,100  Climbing Orlando TRACON
08:56AM 28.3167 -81.5833 60° Northeast 101 116 3,100 -60 Level Orlando TRACON
08:57AM 28.2833 -81.5833 180° South 114 131 3,000 -60 Descending Orlando TRACON
08:58AM 28.2500 -81.5833 180° South 114 131 3,000  Level Orlando TRACON
08:59AM 28.2167 -81.5833 180° South 113 130 3,100  Climbing Orlando TRACON
09:00AM 28.1833 -81.5833 180° South 113 130 3,100 -60 Level Orlando TRACON
09:01AM 28.1500 -81.5833 180° South 115 132 3,000  Descending Orlando TRACON
09:02AM 28.1333 -81.5833 180° South 104 120 3,100 -240 Climbing Orlando TRACON
09:03AM 28.1333 -81.5333 90° East 112 129 2,600 -420 Descending Orlando TRACON
09:04AM 28.1167 -81.5000 120° Southeast 119 137 2,300 -240 Descending Orlando TRACON
09:05AM 28.1167 -81.5000 120° Southeast 99 114 2,200  Descending Orlando TRACON
09:06AM 28.1500 -81.5000 360° North 92 106 2,300  Climbing Orlando TRACON
09:07AM 28.1667 -81.4833 41° Northeast 84 97 2,300  Level Orlando TRACON
09:08AM 28.2000 -81.4833 360° North 87 100 2,300  Level Orlando TRACON
09:09AM 28.2167 -81.4667 41° Northeast 89 102 2,300 -360 Level Orlando TRACON
09:10AM 28.2333 -81.4667 360° North 77 89 1,600 -780 Descending Orlando TRACON
09:12AM 28.2667 -81.4500 24° Northeast 72 83 700 -480 Descending Orlando TRACON
09:13AM 28.2833 -81.4500 360° North 68 78 700 240 Level Orlando TRACON
09:14AM 28.3000 -81.4500 360° North 84 97 1,200 540 Climbing Orlando TRACON
09:15AM 28.2833 -81.4833 240° Southwest 102 117 1,800 420 Climbing Orlando TRACON
09:16AM 28.2833 -81.5000 270° West 119 137 2,100 180 Climbing Orlando TRACON
09:17AM 28.2500 -81.5000 180° South 114 131 2,200  Climbing Orlando TRACON
09:18AM 28.2167 -81.5000 180° South 117 135 2,200  Level Orlando TRACON
09:19AM 28.1833 -81.5000 180° South 122 140 2,200 -60 Level Orlando TRACON
09:20AM 28.1500 -81.4833 156° South 114 131 2,100  Descending Orlando TRACON
09:21AM 28.1167 -81.4667 156° South 109 125 2,200  Climbing Orlando TRACON
09:22AM 28.1000 -81.4500 139° Southeast 114 131 2,200 -60 Level Orlando TRACON
09:23AM 28.1000 -81.4333 90° East 99 114 2,100  Descending Orlando TRACON
09:24AM 28.1000 -81.4000 90° East 93 107 2,200  Climbing Orlando TRACON
09:25AM 28.1167 -81.3833 41° Northeast 93 107 2,100 -180 Descending Orlando TRACON
09:26AM 28.1333 -81.3500 60° Northeast 100 115 1,900 -180 Descending Orlando TRACON
09:27AM 28.1667 -81.3667 336° Northwest 81 93 1,800 -60 Descending Orlando TRACON
09:28AM 28.1833 -81.3667 360° North 80 92 1,800  Level Orlando TRACON
09:29AM 28.2000 -81.3833 319° Northwest 90 104 1,800 -180 Level Orlando TRACON
09:30AM 28.2333 -81.4000 336° Northwest 84 97 1,500 -420 Descending Orlando TRACON
09:31AM 28.2500 -81.4000 360° North 77 89 1,000 -540 Descending Orlando TRACON
09:32AM 28.2667 -81.4167 319° Northwest 85 98 500 -540 Descending Orlando TRACON
09:34AM 28.2833 -81.4333 19° North  Level FlightAware Approximate